Time;durP1;ratioP1;P1;durP2;ratioP2;P2;SDS_P1;SDS_P2;PMS_P1;PMS_P2;Temp;Humidity;BMP_temperature;BMP_pressure;BME280_temperature;BME280_humidity;BME280_pressure;Samples;Min_cycle;Max_cycle;Signal;HPM_P1;HPM_P2
2023/05/19 05:09:16;;;;;;;10.47;6.67;;;7.90;99.90;;;;;;5132071;27;20285;-77
2023/05/19 05:18:26;;;;;;;10.07;5.73;;;8.10;99.90;;;;;;5131685;27;20642;-77
2023/05/19 05:25:29;;;;;;;15.07;6.33;;;;;;;;;;5132500;27;20269;-78
2023/05/19 05:31:29;;;;;;;10.83;5.67;;;;;;;;;;5152905;27;20591;-77
2023/05/19 05:38:04;;;;;;;9.60;5.57;;;8.40;99.90;;;;;;5134359;27;20632;-77
2023/05/19 05:45:10;;;;;;;12.03;5.37;;;8.50;99.90;;;;;;5133236;27;20264;-78
2023/05/19 05:53:57;;;;;;;12.43;5.97;;;8.40;99.90;;;;;;5132666;27;20281;-78
2023/05/19 05:59:12;;;;;;;14.30;5.80;;;8.50;99.90;;;;;;5133081;27;20274;-79
2023/05/19 06:03:58;;;;;;;8.30;5.27;;;8.60;99.90;;;;;;5132869;27;20762;-78
2023/05/19 06:07:47;;;;;;;10.30;4.70;;;8.70;99.90;;;;;;5137872;27;20273;-79
2023/05/19 06:12:26;;;;;;;11.07;5.33;;;8.90;99.90;;;;;;5136823;27;20281;-79
2023/05/19 06:18:07;;;;;;;8.17;5.47;;;8.90;99.90;;;;;;5092762;28;20987;-78
2023/05/19 06:22:48;;;;;;;7.43;4.67;;;9.00;99.90;;;;;;5133746;27;20278;-78
2023/05/19 06:27:51;;;;;;;6.90;4.43;;;9.10;99.90;;;;;;5132232;27;20275;-77
2023/05/19 06:32:32;;;;;;;10.93;5.80;;;9.10;99.90;;;;;;5133108;27;20743;-78
2023/05/19 06:37:33;;;;;;;7.67;5.03;;;9.30;99.90;;;;;;5132490;27;20267;-78
2023/05/19 06:42:41;;;;;;;7.17;4.53;;;9.40;99.90;;;;;;5132201;27;20276;-77
2023/05/19 06:47:57;;;;;;;11.37;4.17;;;9.50;99.90;;;;;;5132223;27;20278;-77
2023/05/19 06:52:17;;;;;;;7.40;4.27;;;;;;;;;;5112430;27;20529;-77
2023/05/19 06:55:44;;;;;;;7.23;4.80;;;;;;;;;;5132526;27;20278;-77
2023/05/19 06:59:36;;;;;;;6.40;3.77;;;9.80;99.90;;;;;;5071791;28;21069;-77
2023/05/19 07:02:03;;;;;;;7.60;4.43;;;9.90;99.90;;;;;;5071781;28;20181;-77
2023/05/19 07:04:29;;;;;;;8.20;4.07;;;9.70;99.90;;;;;;5071763;28;20599;-78
2023/05/19 07:06:55;;;;;;;10.40;4.90;;;;;;;;;;5070787;28;20188;-78
2023/05/19 07:10:37;;;;;;;7.03;4.27;;;9.60;99.90;;;;;;5131828;27;20283;-77
2023/05/19 07:14:37;;;;;;;8.73;3.93;;;9.80;99.90;;;;;;5132144;27;20774;-77
2023/05/19 07:18:40;;;;;;;7.47;4.17;;;10.10;99.90;;;;;;5132264;27;20271;-77
2023/05/19 07:22:38;;;;;;;9.23;3.73;;;10.20;99.90;;;;;;5132190;27;20267;-77
2023/05/19 07:25:04;;;;;;;10.10;4.57;;;;;;;;;;5131774;28;20189;-77
2023/05/19 07:28:37;;;;;;;12.70;4.20;;;9.90;99.90;;;;;;5132190;27;20272;-77
2023/05/19 07:31:03;;;;;;;6.53;4.17;;;;;;;;;;5131593;28;20191;-77
2023/05/19 07:34:43;;;;;;;12.40;4.27;;;9.90;99.90;;;;;;5131820;27;20274;-77
2023/05/19 07:38:35;;;;;;;10.03;4.20;;;10.30;99.90;;;;;;5131924;27;20269;-77
2023/05/19 07:41:01;;;;;;;6.27;3.67;;;10.50;99.90;;;;;;5131314;28;20195;-77
2023/05/19 07:43:27;;;;;;;7.97;3.47;;;10.30;99.90;;;;;;5130392;28;20273;-77
2023/05/19 07:45:54;;;;;;;8.30;3.43;;;;;;;;;;5131666;27;20246;-77
2023/05/19 07:48:21;;;;;;;5.30;3.50;;;;;;;;;;5131745;27;20195;-77
2023/05/19 07:50:48;;;;;;;6.90;3.83;;;10.50;99.90;;;;;;5131224;27;20255;-77
2023/05/19 07:53:14;;;;;;;10.60;3.90;;;;;;;;;;5131468;27;20326;-77
2023/05/19 07:55:40;;;;;;;14.63;5.07;;;10.60;99.90;;;;;;5130225;28;20265;-77
2023/05/19 07:58:06;;;;;;;8.97;4.30;;;10.70;99.90;;;;;;5131393;27;20294;-77
2023/05/19 08:00:32;;;;;;;11.37;4.10;;;;;;;;;;5131136;27;20195;-77
2023/05/19 08:02:58;;;;;;;7.33;3.90;;;10.50;99.90;;;;;;5129858;28;20182;-77
2023/05/19 08:05:28;;;;;;;5.20;3.63;;;10.60;99.90;;;;;;5131447;27;20526;-78
2023/05/19 08:07:55;;;;;;;11.73;3.67;;;10.60;99.90;;;;;;5129891;28;20186;-77
2023/05/19 08:10:21;;;;;;;6.23;3.10;;;10.70;99.90;;;;;;5131039;27;20199;-77
2023/05/19 08:12:46;;;;;;;5.73;3.67;;;10.80;99.90;;;;;;5130898;27;20187;-77
2023/05/19 08:15:12;;;;;;;6.47;3.40;;;10.80;99.90;;;;;;5131644;27;20179;-77
2023/05/19 08:17:38;;;;;;;5.87;3.43;;;10.80;99.90;;;;;;5129671;28;20606;-77
2023/05/19 08:20:07;;;;;;;7.67;3.47;;;10.80;99.90;;;;;;5130777;27;20195;-78
2023/05/19 08:22:32;;;;;;;5.23;3.57;;;10.70;99.90;;;;;;5129587;28;20182;-76
2023/05/19 08:24:58;;;;;;;7.93;3.63;;;10.40;99.90;;;;;;5131048;27;20175;-77
2023/05/19 08:27:24;;;;;;;7.17;3.60;;;10.50;99.90;;;;;;5130661;27;20177;-77
2023/05/19 08:29:50;;;;;;;6.43;3.07;;;10.50;99.90;;;;;;5129237;28;20222;-77
2023/05/19 08:32:16;;;;;;;4.27;3.47;;;10.50;99.90;;;;;;5130684;27;20186;-77
2023/05/19 08:34:41;;;;;;;5.27;3.47;;;10.60;99.90;;;;;;5129501;28;20228;-77
2023/05/19 08:37:07;;;;;;;5.57;3.37;;;10.70;99.90;;;;;;5130349;27;20207;-77
2023/05/19 08:39:33;;;;;;;7.33;3.43;;;10.90;99.90;;;;;;5129252;28;20179;-77
2023/05/19 08:42:00;;;;;;;7.73;3.53;;;11.00;99.90;;;;;;5129453;28;20175;-77
2023/05/19 08:44:26;;;;;;;6.47;3.37;;;11.10;99.90;;;;;;5129210;28;20178;-77
2023/05/19 08:46:53;;;;;;;7.23;3.47;;;11.10;99.90;;;;;;5129323;28;20191;-77
2023/05/19 08:49:25;;;;;;;6.07;3.80;;;10.80;99.90;;;;;;5120983;27;20198;-77
2023/05/19 08:52:12;;;;;;;7.53;3.83;;;10.80;99.90;;;;;;5115453;28;20199;-77
2023/05/19 08:55:08;;;;;;;7.87;2.90;;;10.70;99.90;;;;;;5115301;28;20183;-77
2023/05/19 08:57:35;;;;;;;5.57;3.57;;;10.70;99.90;;;;;;5078982;28;20219;-78
2023/05/19 09:00:08;;;;;;;7.27;3.37;;;10.70;99.90;;;;;;5116235;28;20240;-77
2023/05/19 09:04:57;;;;;;;5.47;3.10;;;10.60;99.90;;;;;;5132295;27;20285;-77
2023/05/19 09:09:32;;;;;;;4.43;3.03;;;;;;;;;;5131792;27;20634;-77
2023/05/19 09:11:58;;;;;;;5.53;3.33;;;11.20;99.90;;;;;;5132258;28;20227;-78
2023/05/19 09:14:24;;;;;;;9.63;3.27;;;11.00;99.90;;;;;;5131806;27;20167;-77
2023/05/19 09:16:51;;;;;;;6.13;3.10;;;10.50;99.90;;;;;;5131685;27;20170;-77
2023/05/19 09:19:17;;;;;;;6.80;2.93;;;11.40;99.90;;;;;;5131544;27;20171;-77
2023/05/19 09:21:44;;;;;;;6.90;3.47;;;11.60;99.90;;;;;;5131605;27;20210;-80
2023/05/19 09:24:10;;;;;;;5.97;3.23;;;11.70;99.90;;;;;;5130579;28;20179;-77
2023/05/19 09:26:40;;;;;;;7.60;3.37;;;11.90;99.90;;;;;;5131575;27;20233;-77
2023/05/19 09:29:14;;;;;;;9.07;3.33;;;11.90;99.90;;;;;;5130314;28;20239;-77
2023/05/19 09:31:54;;;;;;;4.47;2.43;;;11.80;99.90;;;;;;5131255;27;20186;-77
2023/05/19 09:34:23;;;;;;;5.13;3.00;;;11.80;99.90;;;;;;5130858;28;20186;-78
2023/05/19 09:36:50;;;;;;;7.33;3.23;;;11.50;99.90;;;;;;5131409;27;20167;-77
2023/05/19 09:39:17;;;;;;;5.43;3.17;;;11.50;99.90;;;;;;5129909;28;20183;-77
2023/05/19 09:41:43;;;;;;;7.07;2.90;;;11.70;99.90;;;;;;5131155;27;20683;-77
2023/05/19 09:44:21;;;;;;;4.63;3.03;;;11.80;99.90;;;;;;5131416;27;20175;-77
2023/05/19 09:46:51;;;;;;;5.80;2.80;;;12.00;99.90;;;;;;5130923;27;20632;-77
2023/05/19 09:49:22;;;;;;;4.27;3.20;;;12.20;99.90;;;;;;5130891;27;20202;-77
2023/05/19 09:52:00;;;;;;;4.83;3.20;;;12.40;99.90;;;;;;5130722;27;20231;-77
2023/05/19 09:54:28;;;;;;;8.87;3.30;;;12.30;99.90;;;;;;5131005;27;20244;-77
2023/05/19 09:56:58;;;;;;;8.37;3.53;;;12.20;99.90;;;;;;5130507;28;20201;-77
2023/05/19 09:59:24;;;;;;;7.33;3.53;;;12.00;99.90;;;;;;5131530;27;20262;-77
2023/05/19 10:01:57;;;;;;;5.97;3.40;;;12.00;99.90;;;;;;5130044;28;20199;-79
2023/05/19 10:04:28;;;;;;;7.20;3.43;;;11.80;99.90;;;;;;5129921;28;20186;-78
2023/05/19 10:06:58;;;;;;;6.17;3.70;;;12.00;99.90;;;;;;5130705;27;20207;-77
2023/05/19 10:09:25;;;;;;;6.03;3.23;;;12.20;99.90;;;;;;5133080;27;20651;-79
2023/05/19 10:11:52;;;;;;;9.60;4.03;;;12.40;99.90;;;;;;5130756;27;20194;-77
2023/05/19 10:14:25;;;;;;;9.80;3.93;;;12.50;99.90;;;;;;5129566;28;20175;-77
2023/05/19 10:16:52;;;;;;;8.83;3.80;;;12.40;99.90;;;;;;5130953;27;20172;-77
2023/05/19 10:19:25;;;;;;;6.83;3.50;;;12.30;99.90;;;;;;5125612;28;20633;-77
2023/05/19 10:21:52;;;;;;;5.07;3.50;;;12.30;99.90;;;;;;5116346;28;20204;-77
2023/05/19 10:24:18;;;;;;;4.93;2.87;;;12.40;99.90;;;;;;5115224;28;20353;-77
2023/05/19 10:27:00;;;;;;;5.90;3.53;;;12.30;99.90;;;;;;5116536;28;20215;-77
2023/05/19 10:29:29;;;;;;;6.77;4.10;;;12.30;99.90;;;;;;5115693;28;20231;-76
2023/05/19 10:31:59;;;;;;;6.03;4.00;;;12.20;99.90;;;;;;5115223;28;20670;-78
2023/05/19 10:34:56;;;;;;;6.40;4.33;;;12.10;99.90;;;;;;5115526;28;20182;-77
2023/05/19 10:37:27;;;;;;;7.20;3.80;;;12.00;99.90;;;;;;5116365;28;20175;-77
2023/05/19 10:39:54;;;;;;;5.57;3.87;;;12.00;99.90;;;;;;5114691;28;20219;-77
2023/05/19 10:42:56;;;;;;;5.57;3.87;;;11.90;99.90;;;;;;5116104;28;20179;-77
2023/05/19 10:45:28;;;;;;;7.40;5.10;;;11.80;99.90;;;;;;5116090;28;20174;-77
2023/05/19 10:47:54;;;;;;;4.90;3.90;;;11.80;99.90;;;;;;5116038;28;20192;-77
2023/05/19 10:50:20;;;;;;;6.17;4.00;;;11.90;99.90;;;;;;5114527;28;20199;-77
2023/05/19 10:52:54;;;;;;;6.50;4.60;;;12.00;99.90;;;;;;5115973;28;20472;-77
2023/05/19 10:55:46;;;;;;;8.33;4.87;;;12.20;99.90;;;;;;5115987;28;20224;-77
2023/05/19 10:58:12;;;;;;;6.93;4.80;;;12.20;99.90;;;;;;5114648;28;20179;-77
2023/05/19 11:00:38;;;;;;;10.77;4.50;;;12.30;99.90;;;;;;5114399;28;20222;-77
2023/05/19 11:03:15;;;;;;;10.07;5.23;;;12.10;99.90;;;;;;5115727;28;20175;-77
2023/05/19 11:05:44;;;;;;;8.43;4.83;;;11.90;99.90;;;;;;5115608;28;20251;-77
2023/05/19 11:08:10;;;;;;;9.67;4.43;;;11.90;99.90;;;;;;5115561;28;20214;-77
2023/05/19 11:10:36;;;;;;;7.33;3.97;;;11.90;99.90;;;;;;5113819;28;20204;-77
2023/05/19 11:13:04;;;;;;;8.53;4.50;;;11.90;99.90;;;;;;5114207;28;20171;-77
2023/05/19 11:15:34;;;;;;;14.10;5.10;;;11.90;99.90;;;;;;5114301;28;20197;-78
2023/05/19 11:18:01;;;;;;;7.10;4.67;;;12.00;99.90;;;;;;5115601;28;20697;-77
2023/05/19 11:20:28;;;;;;;7.07;4.27;;;12.00;99.90;;;;;;5113668;28;20209;-77
2023/05/19 11:23:14;;;;;;;7.10;4.80;;;12.30;99.90;;;;;;5113996;28;20176;-77
2023/05/19 11:25:45;;;;;;;9.27;4.77;;;12.40;99.90;;;;;;5113987;28;20183;-77
2023/05/19 11:28:13;;;;;;;10.63;5.07;;;12.60;99.90;;;;;;5115343;28;20198;-77
2023/05/19 11:30:44;;;;;;;8.40;5.33;;;12.60;99.90;;;;;;5113033;28;20199;-77
2023/05/19 11:33:12;;;;;;;12.83;5.30;;;;;;;;;;5113532;28;20175;-77
2023/05/19 11:35:38;;;;;;;6.90;5.27;;;12.50;99.90;;;;;;5114960;28;20542;-77
2023/05/19 11:38:05;;;;;;;7.53;5.13;;;12.40;99.90;;;;;;5115050;28;20551;-77
2023/05/19 11:40:32;;;;;;;7.70;4.40;;;12.40;99.90;;;;;;5114569;28;20252;-77
2023/05/19 11:43:00;;;;;;;9.43;4.50;;;12.30;99.90;;;;;;5114715;27;20547;-77
2023/05/19 11:45:27;;;;;;;5.47;4.77;;;12.30;99.90;;;;;;5113356;28;20233;-77
2023/05/19 11:47:56;;;;;;;11.57;5.27;;;12.30;99.90;;;;;;5114731;28;20279;-77
2023/05/19 11:50:21;;;;;;;7.87;4.93;;;12.40;99.90;;;;;;5113134;28;20202;-77
2023/05/19 11:52:47;;;;;;;8.23;5.60;;;12.40;99.90;;;;;;5114471;28;20168;-77
2023/05/19 11:55:17;;;;;;;11.00;5.37;;;12.60;99.90;;;;;;5114724;28;20231;-77
2023/05/19 11:57:57;;;;;;;12.20;5.50;;;12.70;99.90;;;;;;5114478;28;20180;-77
2023/05/19 12:00:27;;;;;;;6.17;5.07;;;12.70;99.90;;;;;;5113293;28;20207;-77
2023/05/19 12:02:53;;;;;;;9.33;5.87;;;12.80;99.90;;;;;;5114850;28;20172;-77
2023/05/19 12:05:21;;;;;;;8.93;5.73;;;13.00;99.90;;;;;;5115039;28;20175;-78
2023/05/19 12:07:49;;;;;;;8.50;5.60;;;13.00;99.90;;;;;;5114342;28;20207;-77
2023/05/19 12:10:18;;;;;;;8.37;5.47;;;13.10;99.90;;;;;;5113069;28;20195;-78
2023/05/19 12:12:44;;;;;;;12.90;5.60;;;13.00;99.90;;;;;;5116201;28;20175;-78
2023/05/19 12:15:15;;;;;;;6.43;5.03;;;12.90;99.90;;;;;;5118086;28;20280;-78
2023/05/19 12:17:41;;;;;;;7.40;5.20;;;12.90;99.90;;;;;;5117827;28;20175;-78
2023/05/19 12:20:08;;;;;;;9.50;5.40;;;12.80;99.90;;;;;;5116506;28;20202;-78
2023/05/19 12:22:34;;;;;;;6.83;5.30;;;12.80;99.90;;;;;;5115244;28;20186;-78
2023/05/19 12:25:00;;;;;;;6.33;4.90;;;12.80;99.90;;;;;;5116884;28;20176;-78
2023/05/19 12:27:26;;;;;;;8.77;5.40;;;12.80;99.90;;;;;;5116980;28;20201;-79
2023/05/19 12:29:53;;;;;;;7.80;5.23;;;12.80;99.90;;;;;;5115016;28;20199;-78
2023/05/19 12:32:25;;;;;;;6.17;5.17;;;12.70;99.90;;;;;;5117277;28;20246;-78
2023/05/19 12:34:52;;;;;;;6.63;5.17;;;12.70;99.90;;;;;;5116069;28;20212;-78
2023/05/19 12:37:18;;;;;;;12.07;5.90;;;12.70;99.90;;;;;;5117363;28;20171;-78
2023/05/19 12:39:44;;;;;;;7.73;5.80;;;12.80;99.90;;;;;;5115630;28;20186;-78
2023/05/19 12:42:11;;;;;;;6.10;5.27;;;12.70;99.90;;;;;;5115545;28;20176;-80
2023/05/19 12:44:47;;;;;;;13.13;5.80;;;12.60;99.90;;;;;;5115955;28;20511;-78
2023/05/19 12:47:14;;;;;;;7.90;5.93;;;12.50;99.90;;;;;;5117390;28;20232;-78
2023/05/19 12:49:54;;;;;;;6.20;4.80;;;12.60;99.90;;;;;;5117323;28;20540;-78
2023/05/19 12:52:21;;;;;;;8.07;6.20;;;12.60;99.90;;;;;;5117582;28;20172;-78
2023/05/19 12:54:48;;;;;;;8.50;5.40;;;12.70;99.90;;;;;;5117348;28;20617;-78
2023/05/19 12:57:15;;;;;;;9.43;5.50;;;12.60;99.90;;;;;;5115160;28;20188;-78
2023/05/19 12:59:42;;;;;;;11.23;5.67;;;12.50;99.90;;;;;;5112056;28;20175;-77
2023/05/19 13:02:07;;;;;;;9.63;6.13;;;12.50;99.90;;;;;;5112818;28;20184;-77
2023/05/19 13:04:33;;;;;;;7.87;5.73;;;12.40;99.90;;;;;;5113558;28;20574;-77
2023/05/19 13:06:59;;;;;;;8.33;5.67;;;12.30;99.90;;;;;;5112306;28;20266;-77
2023/05/19 13:09:25;;;;;;;6.77;5.97;;;12.30;99.90;;;;;;5113854;28;20210;-79
2023/05/19 13:11:52;;;;;;;8.57;6.20;;;12.30;99.90;;;;;;5115210;28;20526;-78
2023/05/19 13:14:18;;;;;;;8.77;5.90;;;12.30;99.90;;;;;;5116204;28;20311;-78
2023/05/19 13:16:47;;;;;;;7.60;6.13;;;12.40;99.90;;;;;;5116708;28;20575;-78
2023/05/19 13:19:16;;;;;;;9.20;5.87;;;12.50;99.90;;;;;;5115259;28;20188;-78
2023/05/19 13:21:42;;;;;;;7.60;5.73;;;12.60;99.90;;;;;;5116892;28;20196;-78
2023/05/19 13:24:08;;;;;;;7.80;5.60;;;12.60;99.90;;;;;;5117904;28;20262;-78
2023/05/19 13:26:34;;;;;;;8.90;6.10;;;12.60;99.90;;;;;;5116500;28;20226;-78
2023/05/19 13:29:02;;;;;;;10.63;6.10;;;12.60;99.90;;;;;;5117060;28;20563;-78
2023/05/19 13:31:27;;;;;;;8.33;5.93;;;12.60;99.90;;;;;;5116481;28;20195;-78
2023/05/19 13:33:53;;;;;;;8.27;6.07;;;12.40;99.90;;;;;;5117068;28;20560;-78
2023/05/19 13:36:19;;;;;;;7.30;5.97;;;12.20;99.90;;;;;;5117167;28;20247;-78
2023/05/19 13:38:44;;;;;;;8.20;6.10;;;12.10;99.90;;;;;;5116590;28;20518;-79
2023/05/19 13:41:10;;;;;;;9.83;5.37;;;;;;;;;;5115319;28;20255;-78
2023/05/19 13:43:36;;;;;;;11.60;6.77;;;12.00;99.90;;;;;;5117064;28;20172;-78
2023/05/19 13:46:02;;;;;;;8.37;6.10;;;12.00;99.90;;;;;;5116802;28;20183;-78
2023/05/19 13:48:28;;;;;;;7.47;6.17;;;;;;;;;;5116732;28;20199;-78
2023/05/19 13:50:54;;;;;;;9.30;6.27;;;11.90;99.90;;;;;;5116739;28;20557;-78
2023/05/19 13:53:20;;;;;;;10.33;5.70;;;11.90;99.90;;;;;;5115791;28;20175;-78
2023/05/19 13:55:46;;;;;;;8.17;6.03;;;;;;;;;;5117697;28;20182;-80
2023/05/19 13:58:13;;;;;;;9.50;6.10;;;11.80;99.90;;;;;;5118604;28;20215;-78
2023/05/19 14:00:40;;;;;;;10.10;6.70;;;11.90;99.90;;;;;;5120088;28;20242;-78
2023/05/19 14:03:06;;;;;;;8.27;6.03;;;11.90;99.90;;;;;;5117434;28;20186;-78
2023/05/19 14:05:32;;;;;;;9.17;7.10;;;11.90;99.90;;;;;;5119028;28;20176;-78
2023/05/19 14:07:59;;;;;;;10.60;6.30;;;12.00;99.90;;;;;;5119898;28;20217;-78
2023/05/19 14:10:25;;;;;;;8.90;6.60;;;11.80;99.90;;;;;;5119798;28;20191;-78
2023/05/19 14:12:52;;;;;;;8.17;6.40;;;11.80;99.90;;;;;;5118777;28;20179;-78
2023/05/19 14:15:50;;;;;;;10.77;6.83;;;11.90;99.90;;;;;;5132252;27;20271;-78
2023/05/19 14:18:16;;;;;;;8.43;7.00;;;;;;;;;;5132819;28;20189;-78
2023/05/19 14:20:42;;;;;;;8.57;6.37;;;11.90;99.90;;;;;;5133148;28;20217;-78
2023/05/19 14:23:08;;;;;;;7.20;6.27;;;;;;;;;;5132439;27;20632;-77
2023/05/19 14:25:34;;;;;;;12.60;6.97;;;;;;;;;;5132349;28;20258;-77
2023/05/19 14:28:00;;;;;;;11.83;6.33;;;;;;;;;;5131151;28;20171;-77
2023/05/19 14:30:26;;;;;;;15.43;7.87;;;;;;;;;;5131346;28;20197;-77
2023/05/19 14:32:52;;;;;;;12.20;7.73;;;;;;;;;;5131619;28;20538;-77
2023/05/19 14:35:19;;;;;;;9.33;6.83;;;;;;;;;;5131463;28;20202;-77
2023/05/19 14:37:45;;;;;;;8.53;6.77;;;;;;;;;;5131102;28;20653;-79
2023/05/19 14:40:11;;;;;;;9.70;7.10;;;12.40;99.90;;;;;;5129509;28;20684;-77
2023/05/19 14:42:37;;;;;;;9.23;7.30;;;;;;;;;;5129636;28;20171;-77
2023/05/19 14:45:03;;;;;;;9.23;7.27;;;12.30;99.90;;;;;;5131144;28;20167;-77
2023/05/19 14:47:29;;;;;;;9.83;6.90;;;;;;;;;;5131111;27;20243;-77
2023/05/19 14:49:54;;;;;;;8.13;6.90;;;12.00;99.90;;;;;;5130712;28;20198;-77
2023/05/19 14:52:21;;;;;;;10.20;6.80;;;12.00;99.90;;;;;;5130946;27;20498;-77
2023/05/19 14:54:47;;;;;;;10.03;6.77;;;12.10;99.90;;;;;;5130753;27;20195;-77
2023/05/19 14:57:12;;;;;;;8.93;7.00;;;12.30;99.90;;;;;;5130702;27;20502;-77
2023/05/19 14:59:39;;;;;;;10.57;6.50;;;;;;;;;;5129117;28;20659;-77
2023/05/19 15:02:05;;;;;;;12.30;7.10;;;12.40;99.90;;;;;;5130871;28;20189;-77
2023/05/19 15:04:30;;;;;;;11.53;7.03;;;12.40;99.90;;;;;;5130840;27;20167;-78
2023/05/19 15:06:57;;;;;;;8.67;6.70;;;;;;;;;;5129475;28;20557;-77
2023/05/19 15:09:23;;;;;;;11.43;6.97;;;12.40;99.90;;;;;;5130775;27;20203;-77
2023/05/19 15:11:49;;;;;;;9.20;7.10;;;12.40;99.90;;;;;;5128942;28;20241;-77
2023/05/19 15:14:14;;;;;;;9.03;7.10;;;12.40;99.90;;;;;;5131389;27;20207;-77
2023/05/19 15:16:40;;;;;;;7.00;6.30;;;12.60;99.90;;;;;;5129905;28;20171;-77
2023/05/19 15:19:06;;;;;;;10.43;7.20;;;12.50;99.90;;;;;;5130578;27;20171;-77
2023/05/19 15:21:31;;;;;;;11.43;6.90;;;12.70;99.90;;;;;;5130229;27;20240;-77
2023/05/19 15:23:57;;;;;;;12.67;6.50;;;12.80;99.90;;;;;;5130394;27;20186;-77
2023/05/19 15:26:23;;;;;;;11.80;6.73;;;;;;;;;;5121501;27;20190;-78
2023/05/19 15:28:50;;;;;;;11.63;6.80;;;12.70;99.90;;;;;;5116769;28;20186;-78
2023/05/19 15:31:16;;;;;;;12.53;7.23;;;12.60;99.90;;;;;;5116466;28;20707;-77
2023/05/19 15:33:42;;;;;;;12.03;7.43;;;12.70;99.90;;;;;;5116576;28;20179;-77
2023/05/19 15:36:08;;;;;;;11.17;6.60;;;12.90;99.90;;;;;;5116747;28;20577;-77
2023/05/19 15:38:35;;;;;;;7.40;6.30;;;12.80;99.90;;;;;;5116546;28;20633;-78
2023/05/19 15:41:06;;;;;;;8.73;6.47;;;12.90;99.90;;;;;;5116218;28;20191;-77
2023/05/19 15:43:32;;;;;;;8.23;6.10;;;13.00;99.90;;;;;;5116418;28;20194;-78
2023/05/19 15:45:57;;;;;;;8.13;6.33;;;12.90;99.90;;;;;;5115068;28;20586;-78
2023/05/19 15:48:23;;;;;;;9.27;6.60;;;12.90;99.90;;;;;;5114943;28;20266;-77
2023/05/19 15:50:50;;;;;;;14.03;6.13;;;12.90;99.90;;;;;;5116751;27;20183;-77
2023/05/19 15:53:15;;;;;;;6.63;5.97;;;13.00;99.90;;;;;;5116501;28;20266;-78
2023/05/19 15:55:41;;;;;;;9.37;6.77;;;13.00;99.90;;;;;;5115975;28;20337;-78
2023/05/19 15:58:07;;;;;;;7.37;5.97;;;12.90;99.90;;;;;;5114952;28;20629;-78
2023/05/19 16:00:33;;;;;;;8.23;6.03;;;13.00;99.90;;;;;;5115897;28;20191;-78
2023/05/19 16:02:58;;;;;;;9.37;6.13;;;12.90;99.90;;;;;;5116726;28;20165;-78
2023/05/19 16:05:24;;;;;;;8.33;6.10;;;12.70;99.90;;;;;;5117518;28;20254;-77
2023/05/19 16:07:50;;;;;;;6.53;5.70;;;12.60;99.90;;;;;;5114412;28;20268;-78
2023/05/19 16:10:15;;;;;;;8.90;5.80;;;12.50;99.90;;;;;;5115686;28;20219;-77
2023/05/19 16:12:41;;;;;;;8.83;6.00;;;12.40;99.90;;;;;;5114382;28;20180;-77
2023/05/19 16:15:07;;;;;;;9.07;6.43;;;12.50;99.90;;;;;;5116864;28;20202;-77
2023/05/19 16:17:33;;;;;;;10.27;6.57;;;12.50;99.90;;;;;;5115934;28;20187;-77
2023/05/19 16:19:59;;;;;;;10.60;6.93;;;12.30;99.90;;;;;;5115468;28;20194;-80
2023/05/19 16:22:25;;;;;;;10.53;7.13;;;;;;;;;;5114462;28;20168;-78
2023/05/19 16:24:52;;;;;;;8.67;6.53;;;;;;;;;;5114284;28;20182;-77
2023/05/19 16:27:19;;;;;;;9.40;7.17;;;12.20;99.90;;;;;;5115542;28;20182;-77
2023/05/19 16:29:45;;;;;;;7.47;6.67;;;;;;;;;;5114042;28;20227;-77
2023/05/19 16:32:11;;;;;;;8.80;6.73;;;12.30;99.90;;;;;;5116320;28;20171;-77
2023/05/19 16:34:37;;;;;;;8.97;6.40;;;12.20;99.90;;;;;;5115519;28;20202;-78
2023/05/19 16:37:03;;;;;;;10.90;7.17;;;12.10;99.90;;;;;;5115197;28;20164;-78
2023/05/19 16:39:29;;;;;;;10.80;6.43;;;;;;;;;;5114988;28;20257;-77
2023/05/19 16:46:27;;;;;;;9.73;6.63;;;12.00;99.90;;;;;;5132210;27;20271;-77
2023/05/19 17:01:17;;;;;;;10.63;8.30;;;11.70;99.90;;;;;;5111595;27;20399;-78
2023/05/19 17:10:49;;;;;;;11.97;8.57;;;11.80;99.90;;;;;;5090877;28;20566;-77
2023/05/19 17:20:45;;;;;;;10.33;8.43;;;12.20;99.90;;;;;;5111250;27;20295;-77
